sensor_id;sensor_type;location;lat;lon;timestamp;P1;durP1;ratioP1;P2;durP2;ratioP2
31910;SDS011;18457;52.432;16.914;2023-03-09T00:01:55;48.80;;;20.20;;
31910;SDS011;18457;52.432;16.914;2023-03-09T00:04:29;46.70;;;20.10;;
31910;SDS011;18457;52.432;16.914;2023-03-09T00:07:01;47.00;;;21.10;;
31910;SDS011;18457;52.432;16.914;2023-03-09T00:09:33;47.10;;;20.40;;
31910;SDS011;18457;52.432;16.914;2023-03-09T00:12:06;45.60;;;18.80;;
31910;SDS011;18457;52.432;16.914;2023-03-09T00:14:38;50.40;;;19.00;;
31910;SDS011;18457;52.432;16.914;2023-03-09T00:17:11;45.60;;;19.20;;
31910;SDS011;18457;52.432;16.914;2023-03-09T00:19:42;42.10;;;19.10;;
31910;SDS011;18457;52.432;16.914;2023-03-09T00:22:15;41.20;;;18.30;;
31910;SDS011;18457;52.432;16.914;2023-03-09T00:24:48;39.50;;;17.30;;
31910;SDS011;18457;52.432;16.914;2023-03-09T00:27:37;43.90;;;17.60;;
31910;SDS011;18457;52.432;16.914;2023-03-09T00:30:10;35.00;;;17.00;;
31910;SDS011;18457;52.432;16.914;2023-03-09T00:32:43;47.10;;;18.20;;
31910;SDS011;18457;52.432;16.914;2023-03-09T00:35:15;40.70;;;18.90;;
31910;SDS011;18457;52.432;16.914;2023-03-09T00:38:10;40.40;;;16.70;;
31910;SDS011;18457;52.432;16.914;2023-03-09T00:41:06;50.90;;;21.70;;
31910;SDS011;18457;52.432;16.914;2023-03-09T00:43:40;49.80;;;19.20;;
31910;SDS011;18457;52.432;16.914;2023-03-09T00:46:12;48.20;;;20.10;;
31910;SDS011;18457;52.432;16.914;2023-03-09T00:48:44;57.00;;;18.70;;
31910;SDS011;18457;52.432;16.914;2023-03-09T00:51:16;50.50;;;20.00;;
31910;SDS011;18457;52.432;16.914;2023-03-09T00:53:55;47.90;;;18.50;;
31910;SDS011;18457;52.432;16.914;2023-03-09T00:56:29;48.50;;;20.90;;
31910;SDS011;18457;52.432;16.914;2023-03-09T00:59:02;44.60;;;20.90;;
31910;SDS011;18457;52.432;16.914;2023-03-09T01:01:35;48.80;;;21.20;;
31910;SDS011;18457;52.432;16.914;2023-03-09T01:04:08;54.80;;;21.50;;
31910;SDS011;18457;52.432;16.914;2023-03-09T01:06:40;61.20;;;21.30;;
31910;SDS011;18457;52.432;16.914;2023-03-09T01:09:13;57.60;;;20.80;;
31910;SDS011;18457;52.432;16.914;2023-03-09T01:11:46;49.60;;;20.30;;
31910;SDS011;18457;52.432;16.914;2023-03-09T01:14:24;51.30;;;20.80;;
31910;SDS011;18457;52.432;16.914;2023-03-09T01:16:56;52.40;;;19.50;;
31910;SDS011;18457;52.432;16.914;2023-03-09T01:19:28;50.70;;;20.30;;
31910;SDS011;18457;52.432;16.914;2023-03-09T01:22:02;46.80;;;19.40;;
31910;SDS011;18457;52.432;16.914;2023-03-09T01:24:34;51.80;;;19.40;;
31910;SDS011;18457;52.432;16.914;2023-03-09T01:27:07;60.40;;;21.90;;
31910;SDS011;18457;52.432;16.914;2023-03-09T01:29:40;55.00;;;21.60;;
31910;SDS011;18457;52.432;16.914;2023-03-09T01:32:12;56.40;;;23.30;;
31910;SDS011;18457;52.432;16.914;2023-03-09T01:34:44;58.20;;;22.70;;
31910;SDS011;18457;52.432;16.914;2023-03-09T01:37:16;58.90;;;22.80;;
31910;SDS011;18457;52.432;16.914;2023-03-09T01:39:48;62.60;;;24.00;;
31910;SDS011;18457;52.432;16.914;2023-03-09T01:42:20;59.90;;;23.40;;
31910;SDS011;18457;52.432;16.914;2023-03-09T01:45:11;68.50;;;25.80;;
31910;SDS011;18457;52.432;16.914;2023-03-09T01:48:19;61.80;;;22.90;;
31910;SDS011;18457;52.432;16.914;2023-03-09T01:50:52;67.00;;;24.90;;
31910;SDS011;18457;52.432;16.914;2023-03-09T01:53:25;65.80;;;25.00;;
31910;SDS011;18457;52.432;16.914;2023-03-09T01:55:57;67.90;;;26.90;;
31910;SDS011;18457;52.432;16.914;2023-03-09T01:58:31;76.90;;;28.60;;
31910;SDS011;18457;52.432;16.914;2023-03-09T02:01:04;68.70;;;28.00;;
31910;SDS011;18457;52.432;16.914;2023-03-09T02:03:41;62.80;;;25.90;;
31910;SDS011;18457;52.432;16.914;2023-03-09T02:06:17;69.30;;;28.10;;
31910;SDS011;18457;52.432;16.914;2023-03-09T02:08:54;66.60;;;27.60;;
31910;SDS011;18457;52.432;16.914;2023-03-09T02:11:34;65.50;;;26.10;;
31910;SDS011;18457;52.432;16.914;2023-03-09T02:14:08;64.90;;;25.40;;
31910;SDS011;18457;52.432;16.914;2023-03-09T02:16:41;66.20;;;25.10;;
31910;SDS011;18457;52.432;16.914;2023-03-09T02:19:19;69.60;;;28.50;;
31910;SDS011;18457;52.432;16.914;2023-03-09T02:22:00;76.90;;;29.80;;
31910;SDS011;18457;52.432;16.914;2023-03-09T02:24:35;66.80;;;26.50;;
31910;SDS011;18457;52.432;16.914;2023-03-09T02:27:16;68.70;;;26.40;;
31910;SDS011;18457;52.432;16.914;2023-03-09T02:29:49;72.90;;;28.30;;
31910;SDS011;18457;52.432;16.914;2023-03-09T02:32:22;61.50;;;27.00;;
31910;SDS011;18457;52.432;16.914;2023-03-09T02:34:55;59.00;;;24.50;;
31910;SDS011;18457;52.432;16.914;2023-03-09T02:37:28;66.20;;;24.80;;
31910;SDS011;18457;52.432;16.914;2023-03-09T02:40:11;58.70;;;25.90;;
31910;SDS011;18457;52.432;16.914;2023-03-09T02:42:46;72.60;;;27.50;;
31910;SDS011;18457;52.432;16.914;2023-03-09T02:45:21;67.50;;;25.40;;
31910;SDS011;18457;52.432;16.914;2023-03-09T02:47:53;62.70;;;24.90;;
31910;SDS011;18457;52.432;16.914;2023-03-09T02:50:27;69.40;;;27.60;;
31910;SDS011;18457;52.432;16.914;2023-03-09T02:53:00;64.30;;;25.90;;
31910;SDS011;18457;52.432;16.914;2023-03-09T02:55:33;71.70;;;25.60;;
31910;SDS011;18457;52.432;16.914;2023-03-09T02:58:08;60.80;;;24.40;;
31910;SDS011;18457;52.432;16.914;2023-03-09T03:00:40;65.20;;;26.70;;
31910;SDS011;18457;52.432;16.914;2023-03-09T03:03:12;67.90;;;26.90;;
31910;SDS011;18457;52.432;16.914;2023-03-09T03:05:48;55.00;;;24.40;;
31910;SDS011;18457;52.432;16.914;2023-03-09T03:08:21;70.30;;;26.00;;
31910;SDS011;18457;52.432;16.914;2023-03-09T03:11:05;64.60;;;25.00;;
31910;SDS011;18457;52.432;16.914;2023-03-09T03:13:40;66.20;;;24.90;;
31910;SDS011;18457;52.432;16.914;2023-03-09T03:16:14;70.20;;;26.30;;
31910;SDS011;18457;52.432;16.914;2023-03-09T03:18:46;47.60;;;20.50;;
31910;SDS011;18457;52.432;16.914;2023-03-09T03:21:18;66.80;;;27.20;;
31910;SDS011;18457;52.432;16.914;2023-03-09T03:23:50;64.60;;;24.80;;
31910;SDS011;18457;52.432;16.914;2023-03-09T03:26:24;67.10;;;27.10;;
31910;SDS011;18457;52.432;16.914;2023-03-09T03:28:58;65.30;;;26.40;;
31910;SDS011;18457;52.432;16.914;2023-03-09T03:31:30;76.90;;;28.10;;
31910;SDS011;18457;52.432;16.914;2023-03-09T03:34:02;77.80;;;30.50;;
31910;SDS011;18457;52.432;16.914;2023-03-09T03:36:39;71.60;;;28.30;;
31910;SDS011;18457;52.432;16.914;2023-03-09T03:39:12;75.20;;;30.10;;
31910;SDS011;18457;52.432;16.914;2023-03-09T03:41:46;79.00;;;29.60;;
31910;SDS011;18457;52.432;16.914;2023-03-09T03:44:19;74.20;;;29.40;;
31910;SDS011;18457;52.432;16.914;2023-03-09T03:46:53;63.40;;;27.20;;
31910;SDS011;18457;52.432;16.914;2023-03-09T03:49:27;70.90;;;27.30;;
31910;SDS011;18457;52.432;16.914;2023-03-09T03:52:19;56.50;;;25.20;;
31910;SDS011;18457;52.432;16.914;2023-03-09T03:54:52;66.90;;;26.40;;
31910;SDS011;18457;52.432;16.914;2023-03-09T03:57:26;64.80;;;27.40;;
31910;SDS011;18457;52.432;16.914;2023-03-09T04:02:39;61.50;;;25.80;;
31910;SDS011;18457;52.432;16.914;2023-03-09T04:05:33;57.90;;;25.00;;
31910;SDS011;18457;52.432;16.914;2023-03-09T04:10:38;52.60;;;22.90;;
31910;SDS011;18457;52.432;16.914;2023-03-09T04:13:14;57.00;;;23.90;;
31910;SDS011;18457;52.432;16.914;2023-03-09T04:18:17;53.90;;;22.30;;
31910;SDS011;18457;52.432;16.914;2023-03-09T04:23:21;50.50;;;21.70;;
31910;SDS011;18457;52.432;16.914;2023-03-09T04:25:57;49.40;;;20.90;;
31910;SDS011;18457;52.432;16.914;2023-03-09T04:28:51;44.90;;;20.00;;
31910;SDS011;18457;52.432;16.914;2023-03-09T04:33:54;51.10;;;21.10;;
31910;SDS011;18457;52.432;16.914;2023-03-09T04:36:26;47.50;;;22.00;;
31910;SDS011;18457;52.432;16.914;2023-03-09T04:39:00;55.80;;;21.80;;
31910;SDS011;18457;52.432;16.914;2023-03-09T04:41:35;44.00;;;20.60;;
31910;SDS011;18457;52.432;16.914;2023-03-09T04:44:11;54.40;;;22.30;;
31910;SDS011;18457;52.432;16.914;2023-03-09T04:46:44;47.10;;;21.40;;
31910;SDS011;18457;52.432;16.914;2023-03-09T04:49:16;35.90;;;15.50;;
31910;SDS011;18457;52.432;16.914;2023-03-09T04:51:48;48.70;;;20.60;;
31910;SDS011;18457;52.432;16.914;2023-03-09T04:54:20;48.90;;;21.00;;
31910;SDS011;18457;52.432;16.914;2023-03-09T04:56:52;42.20;;;19.50;;
31910;SDS011;18457;52.432;16.914;2023-03-09T04:59:26;45.80;;;20.20;;
31910;SDS011;18457;52.432;16.914;2023-03-09T05:01:58;43.60;;;20.60;;
31910;SDS011;18457;52.432;16.914;2023-03-09T05:04:38;44.70;;;19.80;;
31910;SDS011;18457;52.432;16.914;2023-03-09T05:07:10;47.50;;;20.90;;
31910;SDS011;18457;52.432;16.914;2023-03-09T05:12:14;47.50;;;21.10;;
31910;SDS011;18457;52.432;16.914;2023-03-09T05:17:19;39.20;;;18.90;;
31910;SDS011;18457;52.432;16.914;2023-03-09T05:19:51;47.10;;;19.80;;
31910;SDS011;18457;52.432;16.914;2023-03-09T05:22:23;38.60;;;18.70;;
31910;SDS011;18457;52.432;16.914;2023-03-09T05:24:56;37.40;;;19.00;;
31910;SDS011;18457;52.432;16.914;2023-03-09T05:27:27;41.40;;;18.50;;
31910;SDS011;18457;52.432;16.914;2023-03-09T05:30:00;42.20;;;18.70;;
31910;SDS011;18457;52.432;16.914;2023-03-09T05:32:33;41.50;;;19.60;;
31910;SDS011;18457;52.432;16.914;2023-03-09T05:35:06;41.00;;;18.20;;
31910;SDS011;18457;52.432;16.914;2023-03-09T05:37:39;44.40;;;18.40;;
31910;SDS011;18457;52.432;16.914;2023-03-09T05:40:16;42.50;;;18.90;;
31910;SDS011;18457;52.432;16.914;2023-03-09T05:42:55;38.00;;;18.10;;
31910;SDS011;18457;52.432;16.914;2023-03-09T05:45:27;40.00;;;17.60;;
31910;SDS011;18457;52.432;16.914;2023-03-09T05:47:59;35.90;;;17.40;;
31910;SDS011;18457;52.432;16.914;2023-03-09T05:50:32;38.90;;;19.00;;
31910;SDS011;18457;52.432;16.914;2023-03-09T05:53:04;37.60;;;17.40;;
31910;SDS011;18457;52.432;16.914;2023-03-09T05:55:37;36.10;;;16.20;;
31910;SDS011;18457;52.432;16.914;2023-03-09T05:58:10;37.30;;;17.40;;
31910;SDS011;18457;52.432;16.914;2023-03-09T06:00:42;25.10;;;12.50;;
31910;SDS011;18457;52.432;16.914;2023-03-09T06:05:56;30.50;;;15.60;;
31910;SDS011;18457;52.432;16.914;2023-03-09T06:08:30;36.00;;;16.80;;
31910;SDS011;18457;52.432;16.914;2023-03-09T06:11:05;35.70;;;14.70;;
31910;SDS011;18457;52.432;16.914;2023-03-09T06:16:10;38.50;;;16.10;;
31910;SDS011;18457;52.432;16.914;2023-03-09T06:18:45;32.10;;;15.50;;
31910;SDS011;18457;52.432;16.914;2023-03-09T06:21:16;37.20;;;16.10;;
31910;SDS011;18457;52.432;16.914;2023-03-09T06:23:48;33.20;;;16.10;;
31910;SDS011;18457;52.432;16.914;2023-03-09T06:26:23;31.20;;;15.00;;
31910;SDS011;18457;52.432;16.914;2023-03-09T06:29:00;34.10;;;15.20;;
31910;SDS011;18457;52.432;16.914;2023-03-09T06:31:33;34.30;;;15.80;;
31910;SDS011;18457;52.432;16.914;2023-03-09T06:34:08;38.00;;;16.90;;
31910;SDS011;18457;52.432;16.914;2023-03-09T06:36:40;36.20;;;16.20;;
31910;SDS011;18457;52.432;16.914;2023-03-09T06:39:12;31.60;;;16.60;;
31910;SDS011;18457;52.432;16.914;2023-03-09T06:41:44;37.90;;;16.60;;
31910;SDS011;18457;52.432;16.914;2023-03-09T06:44:25;36.50;;;15.50;;
31910;SDS011;18457;52.432;16.914;2023-03-09T06:46:57;22.20;;;10.80;;
31910;SDS011;18457;52.432;16.914;2023-03-09T06:49:30;34.20;;;15.50;;
31910;SDS011;18457;52.432;16.914;2023-03-09T06:52:06;34.70;;;15.60;;
31910;SDS011;18457;52.432;16.914;2023-03-09T06:54:38;35.80;;;15.70;;
31910;SDS011;18457;52.432;16.914;2023-03-09T06:57:15;28.30;;;13.30;;
31910;SDS011;18457;52.432;16.914;2023-03-09T06:59:47;29.30;;;14.50;;
31910;SDS011;18457;52.432;16.914;2023-03-09T07:02:19;34.30;;;14.80;;
31910;SDS011;18457;52.432;16.914;2023-03-09T07:04:52;31.80;;;15.60;;
31910;SDS011;18457;52.432;16.914;2023-03-09T07:07:26;32.30;;;14.90;;
31910;SDS011;18457;52.432;16.914;2023-03-09T07:09:57;33.80;;;15.60;;
31910;SDS011;18457;52.432;16.914;2023-03-09T07:12:29;31.30;;;15.40;;
31910;SDS011;18457;52.432;16.914;2023-03-09T07:15:01;28.50;;;14.00;;
31910;SDS011;18457;52.432;16.914;2023-03-09T07:17:34;28.50;;;14.80;;
31910;SDS011;18457;52.432;16.914;2023-03-09T07:20:07;28.00;;;13.90;;
31910;SDS011;18457;52.432;16.914;2023-03-09T07:22:40;28.50;;;14.00;;
31910;SDS011;18457;52.432;16.914;2023-03-09T07:25:12;27.50;;;14.00;;
31910;SDS011;18457;52.432;16.914;2023-03-09T07:27:45;28.30;;;15.00;;
31910;SDS011;18457;52.432;16.914;2023-03-09T07:30:19;29.80;;;14.30;;
31910;SDS011;18457;52.432;16.914;2023-03-09T07:32:51;30.20;;;14.10;;
31910;SDS011;18457;52.432;16.914;2023-03-09T07:35:22;31.20;;;14.50;;
31910;SDS011;18457;52.432;16.914;2023-03-09T07:37:54;22.00;;;10.50;;
31910;SDS011;18457;52.432;16.914;2023-03-09T07:40:26;27.10;;;14.20;;
31910;SDS011;18457;52.432;16.914;2023-03-09T07:42:58;34.70;;;15.50;;
31910;SDS011;18457;52.432;16.914;2023-03-09T07:45:39;34.40;;;15.20;;
31910;SDS011;18457;52.432;16.914;2023-03-09T07:48:11;26.60;;;13.20;;
31910;SDS011;18457;52.432;16.914;2023-03-09T07:50:44;32.90;;;15.70;;
31910;SDS011;18457;52.432;16.914;2023-03-09T07:53:16;30.40;;;14.90;;
31910;SDS011;18457;52.432;16.914;2023-03-09T07:55:54;35.30;;;15.50;;
31910;SDS011;18457;52.432;16.914;2023-03-09T07:58:27;34.10;;;16.20;;
31910;SDS011;18457;52.432;16.914;2023-03-09T08:00:59;34.90;;;16.80;;
31910;SDS011;18457;52.432;16.914;2023-03-09T08:03:32;32.90;;;15.60;;
31910;SDS011;18457;52.432;16.914;2023-03-09T08:06:05;39.80;;;17.40;;
31910;SDS011;18457;52.432;16.914;2023-03-09T08:08:38;33.80;;;16.90;;
31910;SDS011;18457;52.432;16.914;2023-03-09T08:11:11;35.40;;;18.50;;
31910;SDS011;18457;52.432;16.914;2023-03-09T08:13:43;38.70;;;18.00;;
31910;SDS011;18457;52.432;16.914;2023-03-09T08:16:15;38.20;;;17.80;;
31910;SDS011;18457;52.432;16.914;2023-03-09T08:18:47;45.80;;;18.60;;
31910;SDS011;18457;52.432;16.914;2023-03-09T08:21:19;43.30;;;20.70;;
31910;SDS011;18457;52.432;16.914;2023-03-09T08:23:51;35.80;;;17.70;;
31910;SDS011;18457;52.432;16.914;2023-03-09T08:26:22;37.00;;;17.60;;
31910;SDS011;18457;52.432;16.914;2023-03-09T08:28:54;40.90;;;20.20;;
31910;SDS011;18457;52.432;16.914;2023-03-09T08:31:28;41.40;;;18.50;;
31910;SDS011;18457;52.432;16.914;2023-03-09T08:36:30;35.00;;;18.00;;
31910;SDS011;18457;52.432;16.914;2023-03-09T08:39:02;37.50;;;19.60;;
31910;SDS011;18457;52.432;16.914;2023-03-09T08:41:34;40.20;;;19.60;;
31910;SDS011;18457;52.432;16.914;2023-03-09T08:44:06;38.60;;;18.50;;
31910;SDS011;18457;52.432;16.914;2023-03-09T08:46:39;41.30;;;19.70;;
31910;SDS011;18457;52.432;16.914;2023-03-09T08:49:11;38.20;;;18.90;;
31910;SDS011;18457;52.432;16.914;2023-03-09T08:51:43;38.00;;;19.50;;
31910;SDS011;18457;52.432;16.914;2023-03-09T08:54:16;39.30;;;18.70;;
31910;SDS011;18457;52.432;16.914;2023-03-09T08:56:48;40.00;;;20.40;;
31910;SDS011;18457;52.432;16.914;2023-03-09T08:59:20;40.10;;;18.60;;
31910;SDS011;18457;52.432;16.914;2023-03-09T09:01:52;41.70;;;20.70;;
31910;SDS011;18457;52.432;16.914;2023-03-09T09:04:24;40.90;;;20.40;;
31910;SDS011;18457;52.432;16.914;2023-03-09T09:09:27;43.20;;;19.90;;
31910;SDS011;18457;52.432;16.914;2023-03-09T09:11:59;39.90;;;21.20;;
31910;SDS011;18457;52.432;16.914;2023-03-09T09:14:32;45.30;;;20.90;;
31910;SDS011;18457;52.432;16.914;2023-03-09T09:17:06;42.90;;;20.40;;
31910;SDS011;18457;52.432;16.914;2023-03-09T09:19:40;44.50;;;20.40;;
31910;SDS011;18457;52.432;16.914;2023-03-09T09:22:12;44.10;;;21.40;;
31910;SDS011;18457;52.432;16.914;2023-03-09T09:24:44;42.50;;;21.30;;
31910;SDS011;18457;52.432;16.914;2023-03-09T09:27:16;41.80;;;20.70;;
31910;SDS011;18457;52.432;16.914;2023-03-09T09:32:29;44.10;;;21.20;;
31910;SDS011;18457;52.432;16.914;2023-03-09T09:35:03;40.00;;;19.20;;
31910;SDS011;18457;52.432;16.914;2023-03-09T09:37:39;44.30;;;21.00;;
31910;SDS011;18457;52.432;16.914;2023-03-09T09:40:12;37.90;;;19.40;;
31910;SDS011;18457;52.432;16.914;2023-03-09T09:42:46;42.90;;;19.20;;
31910;SDS011;18457;52.432;16.914;2023-03-09T09:45:26;43.30;;;20.70;;
31910;SDS011;18457;52.432;16.914;2023-03-09T09:48:03;47.10;;;22.70;;
31910;SDS011;18457;52.432;16.914;2023-03-09T09:50:44;44.20;;;21.50;;
31910;SDS011;18457;52.432;16.914;2023-03-09T09:53:37;41.60;;;21.80;;
31910;SDS011;18457;52.432;16.914;2023-03-09T09:56:18;44.60;;;22.60;;
31910;SDS011;18457;52.432;16.914;2023-03-09T09:58:57;42.40;;;21.30;;
31910;SDS011;18457;52.432;16.914;2023-03-09T10:01:37;46.30;;;22.60;;
31910;SDS011;18457;52.432;16.914;2023-03-09T10:04:18;48.00;;;23.80;;
31910;SDS011;18457;52.432;16.914;2023-03-09T10:06:58;45.40;;;22.40;;
31910;SDS011;18457;52.432;16.914;2023-03-09T10:09:56;45.40;;;21.90;;
31910;SDS011;18457;52.432;16.914;2023-03-09T10:12:32;49.60;;;23.00;;
31910;SDS011;18457;52.432;16.914;2023-03-09T10:15:09;45.00;;;21.50;;
31910;SDS011;18457;52.432;16.914;2023-03-09T10:17:47;44.70;;;21.20;;
31910;SDS011;18457;52.432;16.914;2023-03-09T10:20:45;46.40;;;22.10;;
31910;SDS011;18457;52.432;16.914;2023-03-09T10:23:21;43.80;;;22.10;;
31910;SDS011;18457;52.432;16.914;2023-03-09T10:26:27;44.60;;;22.40;;
31910;SDS011;18457;52.432;16.914;2023-03-09T10:29:50;39.10;;;20.50;;
31910;SDS011;18457;52.432;16.914;2023-03-09T10:33:09;45.10;;;21.40;;
31910;SDS011;18457;52.432;16.914;2023-03-09T10:36:42;44.60;;;19.70;;
31910;SDS011;18457;52.432;16.914;2023-03-09T10:39:23;37.90;;;18.90;;
31910;SDS011;18457;52.432;16.914;2023-03-09T10:42:18;44.10;;;21.00;;
31910;SDS011;18457;52.432;16.914;2023-03-09T10:44:59;39.00;;;20.20;;
31910;SDS011;18457;52.432;16.914;2023-03-09T10:53:20;34.80;;;17.60;;
31910;SDS011;18457;52.432;16.914;2023-03-09T10:55:58;36.50;;;18.90;;
31910;SDS011;18457;52.432;16.914;2023-03-09T10:58:36;32.00;;;17.80;;
31910;SDS011;18457;52.432;16.914;2023-03-09T11:01:18;37.30;;;18.50;;
31910;SDS011;18457;52.432;16.914;2023-03-09T11:03:52;34.00;;;18.80;;
31910;SDS011;18457;52.432;16.914;2023-03-09T11:06:31;22.90;;;12.10;;
31910;SDS011;18457;52.432;16.914;2023-03-09T11:09:10;31.80;;;16.00;;
31910;SDS011;18457;52.432;16.914;2023-03-09T11:11:45;31.90;;;17.20;;
31910;SDS011;18457;52.432;16.914;2023-03-09T11:14:23;27.20;;;14.70;;
31910;SDS011;18457;52.432;16.914;2023-03-09T11:16:58;33.60;;;16.40;;
31910;SDS011;18457;52.432;16.914;2023-03-09T11:19:31;30.60;;;14.60;;
31910;SDS011;18457;52.432;16.914;2023-03-09T11:22:04;22.60;;;11.80;;
31910;SDS011;18457;52.432;16.914;2023-03-09T11:24:42;33.70;;;16.50;;
31910;SDS011;18457;52.432;16.914;2023-03-09T11:27:15;33.30;;;17.30;;
31910;SDS011;18457;52.432;16.914;2023-03-09T11:29:54;35.10;;;16.30;;
31910;SDS011;18457;52.432;16.914;2023-03-09T11:32:32;29.30;;;15.40;;
31910;SDS011;18457;52.432;16.914;2023-03-09T11:35:05;33.70;;;15.90;;
31910;SDS011;18457;52.432;16.914;2023-03-09T11:37:42;30.90;;;16.50;;
31910;SDS011;18457;52.432;16.914;2023-03-09T11:40:18;33.20;;;16.00;;
31910;SDS011;18457;52.432;16.914;2023-03-09T11:42:53;27.40;;;14.40;;
31910;SDS011;18457;52.432;16.914;2023-03-09T11:45:29;27.70;;;13.90;;
31910;SDS011;18457;52.432;16.914;2023-03-09T11:48:03;25.50;;;12.80;;
31910;SDS011;18457;52.432;16.914;2023-03-09T11:50:40;22.80;;;11.80;;
31910;SDS011;18457;52.432;16.914;2023-03-09T11:53:24;22.40;;;11.20;;
31910;SDS011;18457;52.432;16.914;2023-03-09T11:56:02;21.70;;;12.50;;
31910;SDS011;18457;52.432;16.914;2023-03-09T11:58:47;23.60;;;12.80;;
31910;SDS011;18457;52.432;16.914;2023-03-09T12:01:27;20.90;;;12.00;;
31910;SDS011;18457;52.432;16.914;2023-03-09T12:04:03;24.90;;;13.00;;
31910;SDS011;18457;52.432;16.914;2023-03-09T12:06:42;23.00;;;12.70;;
31910;SDS011;18457;52.432;16.914;2023-03-09T12:09:22;24.40;;;12.30;;
31910;SDS011;18457;52.432;16.914;2023-03-09T12:12:02;24.80;;;13.90;;
31910;SDS011;18457;52.432;16.914;2023-03-09T12:14:48;26.70;;;13.90;;
31910;SDS011;18457;52.432;16.914;2023-03-09T12:17:23;25.50;;;15.20;;
31910;SDS011;18457;52.432;16.914;2023-03-09T12:20:00;26.40;;;14.10;;
31910;SDS011;18457;52.432;16.914;2023-03-09T12:22:37;31.10;;;15.20;;
31910;SDS011;18457;52.432;16.914;2023-03-09T12:25:56;26.40;;;14.10;;
31910;SDS011;18457;52.432;16.914;2023-03-09T12:28:29;24.00;;;13.30;;
31910;SDS011;18457;52.432;16.914;2023-03-09T12:36:37;25.70;;;13.10;;
31910;SDS011;18457;52.432;16.914;2023-03-09T12:42:28;25.70;;;13.00;;
31910;SDS011;18457;52.432;16.914;2023-03-09T12:48:00;26.90;;;13.70;;
31910;SDS011;18457;52.432;16.914;2023-03-09T12:50:49;23.60;;;12.80;;
31910;SDS011;18457;52.432;16.914;2023-03-09T12:53:25;25.50;;;13.80;;
31910;SDS011;18457;52.432;16.914;2023-03-09T12:56:03;27.40;;;13.10;;
31910;SDS011;18457;52.432;16.914;2023-03-09T12:58:48;24.10;;;12.10;;
31910;SDS011;18457;52.432;16.914;2023-03-09T13:01:28;20.90;;;12.50;;
31910;SDS011;18457;52.432;16.914;2023-03-09T13:04:13;22.50;;;11.40;;
31910;SDS011;18457;52.432;16.914;2023-03-09T13:06:52;24.10;;;11.60;;
31910;SDS011;18457;52.432;16.914;2023-03-09T13:09:31;23.20;;;11.50;;
31910;SDS011;18457;52.432;16.914;2023-03-09T13:12:15;24.80;;;11.60;;
31910;SDS011;18457;52.432;16.914;2023-03-09T13:15:19;20.30;;;11.70;;
31910;SDS011;18457;52.432;16.914;2023-03-09T13:18:11;26.60;;;11.60;;
31910;SDS011;18457;52.432;16.914;2023-03-09T13:20:52;23.80;;;11.70;;
31910;SDS011;18457;52.432;16.914;2023-03-09T13:23:24;23.70;;;11.40;;
31910;SDS011;18457;52.432;16.914;2023-03-09T13:25:56;19.50;;;11.40;;
31910;SDS011;18457;52.432;16.914;2023-03-09T13:28:29;23.90;;;11.00;;
31910;SDS011;18457;52.432;16.914;2023-03-09T13:31:17;20.00;;;11.10;;
31910;SDS011;18457;52.432;16.914;2023-03-09T13:33:55;23.00;;;9.90;;
31910;SDS011;18457;52.432;16.914;2023-03-09T13:36:29;19.90;;;10.40;;
31910;SDS011;18457;52.432;16.914;2023-03-09T13:39:05;19.10;;;10.60;;
31910;SDS011;18457;52.432;16.914;2023-03-09T13:41:45;18.40;;;9.70;;
31910;SDS011;18457;52.432;16.914;2023-03-09T13:44:19;22.30;;;11.00;;
31910;SDS011;18457;52.432;16.914;2023-03-09T13:46:53;18.70;;;9.60;;
31910;SDS011;18457;52.432;16.914;2023-03-09T13:49:28;18.70;;;9.80;;
31910;SDS011;18457;52.432;16.914;2023-03-09T13:52:03;18.20;;;9.50;;
31910;SDS011;18457;52.432;16.914;2023-03-09T13:54:40;23.90;;;10.60;;
31910;SDS011;18457;52.432;16.914;2023-03-09T13:57:40;18.90;;;9.20;;
31910;SDS011;18457;52.432;16.914;2023-03-09T14:00:17;22.90;;;10.20;;
31910;SDS011;18457;52.432;16.914;2023-03-09T14:02:53;20.40;;;10.10;;
31910;SDS011;18457;52.432;16.914;2023-03-09T14:05:24;24.80;;;9.50;;
31910;SDS011;18457;52.432;16.914;2023-03-09T14:08:17;16.40;;;8.90;;
31910;SDS011;18457;52.432;16.914;2023-03-09T14:10:51;16.80;;;9.00;;
31910;SDS011;18457;52.432;16.914;2023-03-09T14:13:23;19.00;;;9.70;;
31910;SDS011;18457;52.432;16.914;2023-03-09T14:16:01;19.60;;;9.80;;
31910;SDS011;18457;52.432;16.914;2023-03-09T14:18:41;18.40;;;9.70;;
31910;SDS011;18457;52.432;16.914;2023-03-09T14:21:20;22.50;;;10.00;;
31910;SDS011;18457;52.432;16.914;2023-03-09T14:23:54;18.40;;;10.10;;
31910;SDS011;18457;52.432;16.914;2023-03-09T14:26:39;24.20;;;9.80;;
31910;SDS011;18457;52.432;16.914;2023-03-09T14:29:19;23.50;;;11.50;;
31910;SDS011;18457;52.432;16.914;2023-03-09T14:34:52;18.20;;;11.20;;
31910;SDS011;18457;52.432;16.914;2023-03-09T14:37:26;21.50;;;10.90;;
31910;SDS011;18457;52.432;16.914;2023-03-09T14:39:59;21.00;;;10.90;;
31910;SDS011;18457;52.432;16.914;2023-03-09T14:42:53;22.10;;;9.40;;
31910;SDS011;18457;52.432;16.914;2023-03-09T14:45:45;19.00;;;9.80;;
31910;SDS011;18457;52.432;16.914;2023-03-09T14:48:17;14.50;;;7.50;;
31910;SDS011;18457;52.432;16.914;2023-03-09T14:50:49;20.80;;;9.70;;
31910;SDS011;18457;52.432;16.914;2023-03-09T14:53:21;9.20;;;6.00;;
31910;SDS011;18457;52.432;16.914;2023-03-09T14:55:54;24.80;;;10.10;;
31910;SDS011;18457;52.432;16.914;2023-03-09T14:58:26;19.80;;;9.40;;
31910;SDS011;18457;52.432;16.914;2023-03-09T15:00:57;18.80;;;8.70;;
31910;SDS011;18457;52.432;16.914;2023-03-09T15:03:30;15.30;;;8.50;;
31910;SDS011;18457;52.432;16.914;2023-03-09T15:06:02;14.30;;;8.30;;
31910;SDS011;18457;52.432;16.914;2023-03-09T15:11:05;16.90;;;9.20;;
31910;SDS011;18457;52.432;16.914;2023-03-09T15:16:09;16.70;;;9.40;;
31910;SDS011;18457;52.432;16.914;2023-03-09T15:18:41;16.80;;;9.40;;
31910;SDS011;18457;52.432;16.914;2023-03-09T15:21:14;15.10;;;9.00;;
31910;SDS011;18457;52.432;16.914;2023-03-09T15:23:47;18.20;;;9.30;;
31910;SDS011;18457;52.432;16.914;2023-03-09T15:28:49;18.70;;;8.70;;
31910;SDS011;18457;52.432;16.914;2023-03-09T15:31:21;22.10;;;9.70;;
31910;SDS011;18457;52.432;16.914;2023-03-09T15:33:53;24.20;;;10.20;;
31910;SDS011;18457;52.432;16.914;2023-03-09T15:36:25;19.50;;;9.50;;
31910;SDS011;18457;52.432;16.914;2023-03-09T15:38:58;21.50;;;10.40;;
31910;SDS011;18457;52.432;16.914;2023-03-09T15:41:29;13.70;;;6.30;;
31910;SDS011;18457;52.432;16.914;2023-03-09T15:44:02;16.10;;;7.10;;
31910;SDS011;18457;52.432;16.914;2023-03-09T15:46:34;17.10;;;8.60;;
31910;SDS011;18457;52.432;16.914;2023-03-09T15:49:06;22.70;;;8.60;;
31910;SDS011;18457;52.432;16.914;2023-03-09T15:51:39;20.20;;;9.30;;
31910;SDS011;18457;52.432;16.914;2023-03-09T15:54:11;19.40;;;9.70;;
31910;SDS011;18457;52.432;16.914;2023-03-09T15:56:43;24.00;;;9.40;;
31910;SDS011;18457;52.432;16.914;2023-03-09T15:59:15;14.60;;;7.90;;
31910;SDS011;18457;52.432;16.914;2023-03-09T16:01:49;18.60;;;8.70;;